sensor_id;sensor_type;location;lat;lon;timestamp;pressure;altitude;pressure_sealevel;temperature;humidity
7834;BME280;3962;42.696;23.354;2023-02-10T00:01:39;96971.56;;;-4.68;67.75
7834;BME280;3962;42.696;23.354;2023-02-10T00:04:06;96969.84;;;-4.68;67.47
7834;BME280;3962;42.696;23.354;2023-02-10T00:06:33;96974.94;;;-4.62;67.06
7834;BME280;3962;42.696;23.354;2023-02-10T00:09:01;96975.84;;;-4.66;67.53
7834;BME280;3962;42.696;23.354;2023-02-10T00:11:30;96966.34;;;-4.68;66.93
7834;BME280;3962;42.696;23.354;2023-02-10T00:14:16;96972.38;;;-4.66;67.18
7834;BME280;3962;42.696;23.354;2023-02-10T00:16:43;96968.06;;;-4.66;67.13
7834;BME280;3962;42.696;23.354;2023-02-10T00:19:10;96962.03;;;-4.68;67.20
7834;BME280;3962;42.696;23.354;2023-02-10T00:21:37;96966.31;;;-4.65;67.29
7834;BME280;3962;42.696;23.354;2023-02-10T00:24:04;96968.97;;;-4.70;67.43
7834;BME280;3962;42.696;23.354;2023-02-10T00:26:32;96966.38;;;-4.70;67.26
7834;BME280;3962;42.696;23.354;2023-02-10T00:28:59;96968.06;;;-4.67;67.73
7834;BME280;3962;42.696;23.354;2023-02-10T00:31:26;96965.53;;;-4.73;67.71
7834;BME280;3962;42.696;23.354;2023-02-10T00:33:52;96966.41;;;-4.74;67.78
7834;BME280;3962;42.696;23.354;2023-02-10T00:36:19;96968.13;;;-4.72;67.62
7834;BME280;3962;42.696;23.354;2023-02-10T00:38:47;96960.41;;;-4.78;67.53
7834;BME280;3962;42.696;23.354;2023-02-10T00:41:16;96962.16;;;-4.80;67.52
7834;BME280;3962;42.696;23.354;2023-02-10T00:43:44;96952.72;;;-4.85;67.63
7834;BME280;3962;42.696;23.354;2023-02-10T00:46:11;96953.59;;;-4.88;68.23
7834;BME280;3962;42.696;23.354;2023-02-10T00:48:38;96947.53;;;-4.88;67.90
7834;BME280;3962;42.696;23.354;2023-02-10T00:51:06;96935.44;;;-4.88;68.22
7834;BME280;3962;42.696;23.354;2023-02-10T00:53:33;96938.06;;;-4.91;68.11
7834;BME280;3962;42.696;23.354;2023-02-10T00:56:00;96939.78;;;-4.93;68.56
7834;BME280;3962;42.696;23.354;2023-02-10T00:58:27;96939.00;;;-4.98;68.58
7834;BME280;3962;42.696;23.354;2023-02-10T01:00:55;96946.84;;;-5.05;68.36
7834;BME280;3962;42.696;23.354;2023-02-10T01:03:23;96940.00;;;-5.12;69.01
7834;BME280;3962;42.696;23.354;2023-02-10T01:05:50;96936.56;;;-5.11;69.26
7834;BME280;3962;42.696;23.354;2023-02-10T01:08:17;96938.28;;;-5.12;68.84
7834;BME280;3962;42.696;23.354;2023-02-10T01:10:44;96939.16;;;-5.11;69.01
7834;BME280;3962;42.696;23.354;2023-02-10T01:13:12;96932.25;;;-5.15;69.39
7834;BME280;3962;42.696;23.354;2023-02-10T01:15:42;96932.28;;;-5.18;69.29
7834;BME280;3962;42.696;23.354;2023-02-10T01:18:10;96929.78;;;-5.29;69.29
7834;BME280;3962;42.696;23.354;2023-02-10T01:20:38;96940.13;;;-5.24;69.74
7834;BME280;3962;42.696;23.354;2023-02-10T01:23:05;96928.88;;;-5.22;69.37
7834;BME280;3962;42.696;23.354;2023-02-10T01:25:32;96922.81;;;-5.21;69.49
7834;BME280;3962;42.696;23.354;2023-02-10T01:28:00;96924.50;;;-5.20;69.61
7834;BME280;3962;42.696;23.354;2023-02-10T01:30:27;96928.88;;;-5.23;70.13
7834;BME280;3962;42.696;23.354;2023-02-10T01:32:54;96921.09;;;-5.23;69.85
7834;BME280;3962;42.696;23.354;2023-02-10T01:35:23;96918.53;;;-5.26;69.91
7834;BME280;3962;42.696;23.354;2023-02-10T01:37:49;96922.84;;;-5.27;70.08
7834;BME280;3962;42.696;23.354;2023-02-10T01:40:17;96924.63;;;-5.32;70.11
7834;BME280;3962;42.696;23.354;2023-02-10T01:42:43;96926.41;;;-5.38;70.17
7834;BME280;3962;42.696;23.354;2023-02-10T01:45:18;96911.72;;;-5.39;70.98
7834;BME280;3962;42.696;23.354;2023-02-10T01:47:46;96916.84;;;-5.32;71.16
7834;BME280;3962;42.696;23.354;2023-02-10T01:50:16;96913.31;;;-5.25;70.58
7834;BME280;3962;42.696;23.354;2023-02-10T01:52:45;96908.16;;;-5.26;70.95
7834;BME280;3962;42.696;23.354;2023-02-10T01:55:15;96907.34;;;-5.30;70.99
7834;BME280;3962;42.696;23.354;2023-02-10T01:57:43;96910.84;;;-5.37;71.01
7834;BME280;3962;42.696;23.354;2023-02-10T02:00:13;96902.28;;;-5.48;71.45
7834;BME280;3962;42.696;23.354;2023-02-10T02:02:41;96893.81;;;-5.62;71.84
7834;BME280;3962;42.696;23.354;2023-02-10T02:05:20;96894.69;;;-5.64;72.10
7834;BME280;3962;42.696;23.354;2023-02-10T02:07:48;96887.81;;;-5.71;72.83
7834;BME280;3962;42.696;23.354;2023-02-10T02:10:15;96890.47;;;-5.77;72.61
7834;BME280;3962;42.696;23.354;2023-02-10T02:12:50;96886.16;;;-5.78;72.75
7834;BME280;3962;42.696;23.354;2023-02-10T02:15:26;96878.44;;;-5.83;73.40
7834;BME280;3962;42.696;23.354;2023-02-10T02:17:59;96882.75;;;-5.83;72.97
7834;BME280;3962;42.696;23.354;2023-02-10T02:23:41;96883.69;;;-5.87;73.71
7834;BME280;3962;42.696;23.354;2023-02-10T02:26:33;96871.53;;;-5.82;73.23
7834;BME280;3962;42.696;23.354;2023-02-10T02:29:36;96881.09;;;-5.86;73.46
7834;BME280;3962;42.696;23.354;2023-02-10T02:32:14;96874.16;;;-5.87;73.11
7834;BME280;3962;42.696;23.354;2023-02-10T02:34:49;96879.38;;;-5.91;73.75
7834;BME280;3962;42.696;23.354;2023-02-10T02:37:20;96877.66;;;-5.89;73.48
7834;BME280;3962;42.696;23.354;2023-02-10T02:39:49;96875.94;;;-5.92;73.46
7834;BME280;3962;42.696;23.354;2023-02-10T02:42:19;96874.19;;;-5.88;73.82
7834;BME280;3962;42.696;23.354;2023-02-10T02:44:49;96876.75;;;-5.85;73.84
7834;BME280;3962;42.696;23.354;2023-02-10T02:47:43;96882.84;;;-5.89;74.38
7834;BME280;3962;42.696;23.354;2023-02-10T02:50:22;96865.63;;;-5.99;73.70
7834;BME280;3962;42.696;23.354;2023-02-10T02:52:59;96867.44;;;-6.12;73.77
7834;BME280;3962;42.696;23.354;2023-02-10T02:55:35;96873.47;;;-6.10;74.97
7834;BME280;3962;42.696;23.354;2023-02-10T02:58:10;96877.03;;;-6.23;74.43
7834;BME280;3962;42.696;23.354;2023-02-10T03:00:39;96872.72;;;-6.27;75.20
7834;BME280;3962;42.696;23.354;2023-02-10T03:03:10;96866.00;;;-6.49;75.19
7834;BME280;3962;42.696;23.354;2023-02-10T03:05:37;96854.88;;;-6.67;76.02
7834;BME280;3962;42.696;23.354;2023-02-10T03:08:04;96866.84;;;-6.53;75.84
7834;BME280;3962;42.696;23.354;2023-02-10T03:10:30;96870.25;;;-6.43;75.91
7834;BME280;3962;42.696;23.354;2023-02-10T03:12:57;96872.03;;;-6.51;75.65
7834;BME280;3962;42.696;23.354;2023-02-10T03:15:24;96874.50;;;-6.33;76.53
7834;BME280;3962;42.696;23.354;2023-02-10T03:17:51;96870.09;;;-6.22;75.48
7834;BME280;3962;42.696;23.354;2023-02-10T03:20:19;96877.00;;;-6.18;75.25
7834;BME280;3962;42.696;23.354;2023-02-10T03:22:46;96871.81;;;-6.20;74.61
7834;BME280;3962;42.696;23.354;2023-02-10T03:25:13;96876.13;;;-6.16;74.82
7834;BME280;3962;42.696;23.354;2023-02-10T03:27:40;96874.38;;;-6.12;74.52
7834;BME280;3962;42.696;23.354;2023-02-10T03:30:07;96875.25;;;-6.16;74.35
7834;BME280;3962;42.696;23.354;2023-02-10T03:32:34;96881.22;;;-6.05;74.06
7834;BME280;3962;42.696;23.354;2023-02-10T03:35:01;96874.34;;;-6.11;73.97
7834;BME280;3962;42.696;23.354;2023-02-10T03:37:29;96873.53;;;-6.17;73.17
7834;BME280;3962;42.696;23.354;2023-02-10T03:39:56;96877.00;;;-6.20;74.00
7834;BME280;3962;42.696;23.354;2023-02-10T03:42:23;96870.13;;;-6.25;73.74
7834;BME280;3962;42.696;23.354;2023-02-10T03:44:50;96868.53;;;-6.44;73.85
7834;BME280;3962;42.696;23.354;2023-02-10T03:47:16;96859.91;;;-6.43;74.73
7834;BME280;3962;42.696;23.354;2023-02-10T03:49:43;96859.00;;;-6.36;74.07
7834;BME280;3962;42.696;23.354;2023-02-10T03:52:10;96864.16;;;-6.32;74.24
7834;BME280;3962;42.696;23.354;2023-02-10T03:54:38;96851.97;;;-6.19;74.29
7834;BME280;3962;42.696;23.354;2023-02-10T03:57:05;96851.94;;;-6.16;74.55
7834;BME280;3962;42.696;23.354;2023-02-10T03:59:31;96857.09;;;-6.12;74.31
7834;BME280;3962;42.696;23.354;2023-02-10T04:01:58;96851.88;;;-6.07;74.00
7834;BME280;3962;42.696;23.354;2023-02-10T04:04:25;96845.88;;;-6.12;73.57
7834;BME280;3962;42.696;23.354;2023-02-10T04:06:52;96851.06;;;-6.12;73.33
7834;BME280;3962;42.696;23.354;2023-02-10T04:09:18;96851.13;;;-6.21;73.83
7834;BME280;3962;42.696;23.354;2023-02-10T04:11:47;96844.19;;;-6.21;74.13
7834;BME280;3962;42.696;23.354;2023-02-10T04:14:13;96852.00;;;-6.24;73.83
7834;BME280;3962;42.696;23.354;2023-02-10T04:16:40;96849.31;;;-6.12;74.53
7834;BME280;3962;42.696;23.354;2023-02-10T04:19:07;96856.16;;;-6.06;73.74
7834;BME280;3962;42.696;23.354;2023-02-10T04:21:34;96851.91;;;-6.10;74.09
7834;BME280;3962;42.696;23.354;2023-02-10T04:24:00;96854.53;;;-6.16;73.45
7834;BME280;3962;42.696;23.354;2023-02-10T04:26:27;96852.00;;;-6.24;73.85
7834;BME280;3962;42.696;23.354;2023-02-10T04:28:55;96849.41;;;-6.27;74.45
7834;BME280;3962;42.696;23.354;2023-02-10T04:31:22;96847.69;;;-6.26;74.64
7834;BME280;3962;42.696;23.354;2023-02-10T04:33:49;96855.47;;;-6.26;74.68
7834;BME280;3962;42.696;23.354;2023-02-10T04:36:16;96857.22;;;-6.28;74.52
7834;BME280;3962;42.696;23.354;2023-02-10T04:38:43;96856.31;;;-6.26;75.09
7834;BME280;3962;42.696;23.354;2023-02-10T04:41:09;96850.28;;;-6.28;74.60
7834;BME280;3962;42.696;23.354;2023-02-10T04:43:36;96856.34;;;-6.27;74.66
7834;BME280;3962;42.696;23.354;2023-02-10T04:46:04;96858.00;;;-6.19;74.58
7834;BME280;3962;42.696;23.354;2023-02-10T04:48:31;96853.72;;;-6.24;74.28
7834;BME280;3962;42.696;23.354;2023-02-10T04:51:09;96861.53;;;-6.29;74.47
7834;BME280;3962;42.696;23.354;2023-02-10T04:53:41;96858.91;;;-6.26;74.93
7834;BME280;3962;42.696;23.354;2023-02-10T04:56:18;96862.31;;;-6.16;74.78
7834;BME280;3962;42.696;23.354;2023-02-10T04:58:49;96857.13;;;-6.16;74.56
7834;BME280;3962;42.696;23.354;2023-02-10T05:01:25;96858.84;;;-6.15;74.05
7834;BME280;3962;42.696;23.354;2023-02-10T05:03:52;96863.19;;;-6.17;74.58
7834;BME280;3962;42.696;23.354;2023-02-10T05:06:19;96868.34;;;-6.16;74.24
7834;BME280;3962;42.696;23.354;2023-02-10T05:08:46;96868.34;;;-6.16;73.94
7834;BME280;3962;42.696;23.354;2023-02-10T05:11:15;96874.38;;;-6.15;72.75
7834;BME280;3962;42.696;23.354;2023-02-10T05:13:43;96871.81;;;-6.20;72.99
7834;BME280;3962;42.696;23.354;2023-02-10T05:16:11;96879.59;;;-6.20;72.96
7834;BME280;3962;42.696;23.354;2023-02-10T05:18:40;96889.94;;;-6.17;71.80
7834;BME280;3962;42.696;23.354;2023-02-10T05:21:07;96884.78;;;-6.20;71.87
7834;BME280;3962;42.696;23.354;2023-02-10T05:23:36;96898.59;;;-6.19;72.01
7834;BME280;3962;42.696;23.354;2023-02-10T05:26:03;96900.31;;;-6.20;71.94
7834;BME280;3962;42.696;23.354;2023-02-10T05:28:30;96906.34;;;-6.16;71.56
7834;BME280;3962;42.696;23.354;2023-02-10T05:30:57;96904.59;;;-6.14;72.46
7834;BME280;3962;42.696;23.354;2023-02-10T05:33:24;96906.44;;;-6.28;72.58
7834;BME280;3962;42.696;23.354;2023-02-10T05:35:52;96905.63;;;-6.36;73.62
7834;BME280;3962;42.696;23.354;2023-02-10T05:38:19;96909.97;;;-6.44;74.35
7834;BME280;3962;42.696;23.354;2023-02-10T05:40:45;96916.03;;;-6.51;74.51
7834;BME280;3962;42.696;23.354;2023-02-10T05:43:12;96920.41;;;-6.59;74.61
7834;BME280;3962;42.696;23.354;2023-02-10T05:45:39;96909.19;;;-6.66;74.92
7834;BME280;3962;42.696;23.354;2023-02-10T05:48:07;96920.47;;;-6.74;74.94
7834;BME280;3962;42.696;23.354;2023-02-10T05:50:34;96931.69;;;-6.75;74.66
7834;BME280;3962;42.696;23.354;2023-02-10T05:53:02;96923.91;;;-6.78;74.35
7834;BME280;3962;42.696;23.354;2023-02-10T05:55:29;96930.81;;;-6.76;74.43
7834;BME280;3962;42.696;23.354;2023-02-10T05:57:55;96929.06;;;-6.66;74.77
7834;BME280;3962;42.696;23.354;2023-02-10T06:00:22;96919.53;;;-6.61;74.13
7834;BME280;3962;42.696;23.354;2023-02-10T06:02:49;96926.41;;;-6.57;73.69
7834;BME280;3962;42.696;23.354;2023-02-10T06:05:16;96925.59;;;-6.65;73.84
7834;BME280;3962;42.696;23.354;2023-02-10T06:07:43;96933.28;;;-6.53;74.15
7834;BME280;3962;42.696;23.354;2023-02-10T06:10:11;96928.13;;;-6.49;73.76
7834;BME280;3962;42.696;23.354;2023-02-10T06:12:38;96934.16;;;-6.47;73.63
7834;BME280;3962;42.696;23.354;2023-02-10T06:15:05;96940.97;;;-6.38;72.87
7834;BME280;3962;42.696;23.354;2023-02-10T06:17:32;96947.03;;;-6.36;73.27
7834;BME280;3962;42.696;23.354;2023-02-10T06:19:59;96943.56;;;-6.29;73.49
7834;BME280;3962;42.696;23.354;2023-02-10T06:22:26;96952.97;;;-6.21;72.86
7834;BME280;3962;42.696;23.354;2023-02-10T06:24:53;96957.25;;;-6.14;73.24
7834;BME280;3962;42.696;23.354;2023-02-10T06:27:21;96952.09;;;-6.15;72.59
7834;BME280;3962;42.696;23.354;2023-02-10T06:29:48;96964.97;;;-6.05;72.15
7834;BME280;3962;42.696;23.354;2023-02-10T06:32:14;96964.13;;;-6.05;72.44
7834;BME280;3962;42.696;23.354;2023-02-10T06:34:42;96958.03;;;-5.97;71.96
7834;BME280;3962;42.696;23.354;2023-02-10T06:37:10;96961.44;;;-5.92;72.10
7834;BME280;3962;42.696;23.354;2023-02-10T06:39:37;96968.31;;;-5.86;71.79
7834;BME280;3962;42.696;23.354;2023-02-10T06:42:06;96954.50;;;-5.87;71.05
7834;BME280;3962;42.696;23.354;2023-02-10T06:44:34;96962.28;;;-5.91;71.18
7834;BME280;3962;42.696;23.354;2023-02-10T06:47:01;96964.03;;;-5.95;71.15
7834;BME280;3962;42.696;23.354;2023-02-10T06:49:27;96967.41;;;-5.79;71.53
7834;BME280;3962;42.696;23.354;2023-02-10T06:51:54;96970.72;;;-5.64;71.49
7834;BME280;3962;42.696;23.354;2023-02-10T06:54:21;96968.88;;;-5.51;70.81
7834;BME280;3962;42.696;23.354;2023-02-10T06:56:49;96966.19;;;-5.39;70.60
7834;BME280;3962;42.696;23.354;2023-02-10T06:59:16;96974.78;;;-5.33;69.90
7834;BME280;3962;42.696;23.354;2023-02-10T07:01:44;96987.66;;;-5.22;69.74
7834;BME280;3962;42.696;23.354;2023-02-10T07:04:11;96982.59;;;-5.36;69.08
7834;BME280;3962;42.696;23.354;2023-02-10T07:06:38;96981.78;;;-5.42;69.85
7834;BME280;3962;42.696;23.354;2023-02-10T07:09:05;96977.38;;;-5.30;69.96
7834;BME280;3962;42.696;23.354;2023-02-10T07:11:32;96972.06;;;-5.19;69.68
7834;BME280;3962;42.696;23.354;2023-02-10T07:13:59;96962.41;;;-5.04;69.01
7834;BME280;3962;42.696;23.354;2023-02-10T07:16:26;96966.56;;;-4.89;68.88
7834;BME280;3962;42.696;23.354;2023-02-10T07:18:58;96962.28;;;-4.90;68.45
7834;BME280;3962;42.696;23.354;2023-02-10T07:21:25;96961.38;;;-4.89;68.74
7834;BME280;3962;42.696;23.354;2023-02-10T07:23:52;96966.63;;;-4.92;68.91
7834;BME280;3962;42.696;23.354;2023-02-10T07:26:19;96966.69;;;-4.98;67.94
7834;BME280;3962;42.696;23.354;2023-02-10T07:28:46;96969.28;;;-4.98;68.47
7834;BME280;3962;42.696;23.354;2023-02-10T07:31:13;96955.38;;;-4.93;68.80
7834;BME280;3962;42.696;23.354;2023-02-10T07:33:40;96961.22;;;-4.71;68.82
7834;BME280;3962;42.696;23.354;2023-02-10T07:36:09;96966.41;;;-4.74;67.96
7834;BME280;3962;42.696;23.354;2023-02-10T07:38:36;96961.09;;;-4.62;68.42
7834;BME280;3962;42.696;23.354;2023-02-10T07:41:03;96958.25;;;-4.41;68.16
7834;BME280;3962;42.696;23.354;2023-02-10T07:43:31;96958.97;;;-4.30;67.34
7834;BME280;3962;42.696;23.354;2023-02-10T07:45:58;96957.16;;;-4.22;67.31
7834;BME280;3962;42.696;23.354;2023-02-10T07:48:25;96952.84;;;-4.23;66.75
7834;BME280;3962;42.696;23.354;2023-02-10T07:50:52;96955.31;;;-4.14;66.39
7834;BME280;3962;42.696;23.354;2023-02-10T07:53:21;96949.31;;;-4.21;66.44
7834;BME280;3962;42.696;23.354;2023-02-10T07:55:48;96958.91;;;-4.24;66.61
7834;BME280;3962;42.696;23.354;2023-02-10T07:58:15;96968.44;;;-4.25;66.65
7834;BME280;3962;42.696;23.354;2023-02-10T08:00:42;96963.13;;;-4.17;66.79
7834;BME280;3962;42.696;23.354;2023-02-10T08:03:11;96967.34;;;-4.07;66.63
7834;BME280;3962;42.696;23.354;2023-02-10T08:05:38;96961.22;;;-4.03;66.04
7834;BME280;3962;42.696;23.354;2023-02-10T08:08:07;96963.66;;;-3.93;65.58
7834;BME280;3962;42.696;23.354;2023-02-10T08:10:36;96965.97;;;-3.73;65.61
7834;BME280;3962;42.696;23.354;2023-02-10T08:13:03;96960.53;;;-3.57;65.06
7834;BME280;3962;42.696;23.354;2023-02-10T08:15:30;96965.63;;;-3.50;64.47
7834;BME280;3962;42.696;23.354;2023-02-10T08:17:58;96950.81;;;-3.45;63.95
7834;BME280;3962;42.696;23.354;2023-02-10T08:20:25;96949.03;;;-3.43;64.27
7834;BME280;3962;42.696;23.354;2023-02-10T08:22:53;96952.22;;;-3.27;63.80
7834;BME280;3962;42.696;23.354;2023-02-10T08:25:20;96952.16;;;-3.23;63.37
7834;BME280;3962;42.696;23.354;2023-02-10T08:27:48;96948.56;;;-3.16;63.69
7834;BME280;3962;42.696;23.354;2023-02-10T08:30:16;96946.56;;;-3.00;63.79
7834;BME280;3962;42.696;23.354;2023-02-10T08:32:44;96949.00;;;-2.91;62.97
7834;BME280;3962;42.696;23.354;2023-02-10T08:35:11;96955.78;;;-2.39;62.64
7834;BME280;3962;42.696;23.354;2023-02-10T08:37:38;96952.97;;;-0.81;59.15
7834;BME280;3962;42.696;23.354;2023-02-10T08:40:06;96944.84;;;0.50;56.02
7834;BME280;3962;42.696;23.354;2023-02-10T08:42:33;96948.63;;;1.45;52.45
7834;BME280;3962;42.696;23.354;2023-02-10T08:45:02;96949.19;;;2.02;49.31
7834;BME280;3962;42.696;23.354;2023-02-10T08:47:30;96946.47;;;2.71;48.19
7834;BME280;3962;42.696;23.354;2023-02-10T08:49:58;96940.03;;;3.62;47.25
7834;BME280;3962;42.696;23.354;2023-02-10T08:52:25;96953.38;;;3.98;45.84
7834;BME280;3962;42.696;23.354;2023-02-10T08:54:51;96943.41;;;2.39;47.04
7834;BME280;3962;42.696;23.354;2023-02-10T08:57:18;96939.94;;;2.15;47.65
7834;BME280;3962;42.696;23.354;2023-02-10T08:59:45;96939.53;;;2.03;47.68
7834;BME280;3962;42.696;23.354;2023-02-10T09:02:14;96937.91;;;1.76;48.30
7834;BME280;3962;42.696;23.354;2023-02-10T09:04:42;96933.47;;;2.68;47.97
7834;BME280;3962;42.696;23.354;2023-02-10T09:07:10;96909.69;;;2.71;46.66
7834;BME280;3962;42.696;23.354;2023-02-10T09:09:39;96928.66;;;3.01;45.58
7834;BME280;3962;42.696;23.354;2023-02-10T09:12:06;96911.56;;;3.11;45.54
7834;BME280;3962;42.696;23.354;2023-02-10T09:14:36;96923.66;;;3.15;45.10
7834;BME280;3962;42.696;23.354;2023-02-10T09:17:02;96916.09;;;3.07;45.29
7834;BME280;3962;42.696;23.354;2023-02-10T09:19:31;96925.00;;;2.83;45.66
7834;BME280;3962;42.696;23.354;2023-02-10T09:21:58;96921.00;;;2.95;45.47
7834;BME280;3962;42.696;23.354;2023-02-10T09:24:24;96922.78;;;2.94;45.41
7834;BME280;3962;42.696;23.354;2023-02-10T09:26:51;96914.16;;;2.48;45.65
7834;BME280;3962;42.696;23.354;2023-02-10T09:29:18;96916.06;;;2.66;46.02
7834;BME280;3962;42.696;23.354;2023-02-10T09:31:45;96924.38;;;2.77;45.69
7834;BME280;3962;42.696;23.354;2023-02-10T09:34:12;96916.97;;;2.65;45.75
7834;BME280;3962;42.696;23.354;2023-02-10T09:36:40;96915.31;;;2.62;45.78
7834;BME280;3962;42.696;23.354;2023-02-10T09:39:07;96908.31;;;2.63;45.06
7834;BME280;3962;42.696;23.354;2023-02-10T09:41:42;96908.59;;;2.55;46.34
7834;BME280;3962;42.696;23.354;2023-02-10T09:44:15;96903.69;;;2.02;46.63
7834;BME280;3962;42.696;23.354;2023-02-10T09:47:10;96896.94;;;2.18;47.35
7834;BME280;3962;42.696;23.354;2023-02-10T09:49:51;96897.25;;;2.55;45.95
7834;BME280;3962;42.696;23.354;2023-02-10T09:52:32;96896.50;;;2.73;45.99
7834;BME280;3962;42.696;23.354;2023-02-10T09:55:08;96895.06;;;1.98;46.79
7834;BME280;3962;42.696;23.354;2023-02-10T09:57:42;96886.97;;;2.27;46.60
7834;BME280;3962;42.696;23.354;2023-02-10T10:00:21;96884.34;;;2.49;45.83
7834;BME280;3962;42.696;23.354;2023-02-10T10:02:52;96885.69;;;2.37;45.89
7834;BME280;3962;42.696;23.354;2023-02-10T10:05:23;96876.69;;;2.43;47.00
7834;BME280;3962;42.696;23.354;2023-02-10T10:07:58;96866.88;;;2.69;45.91
7834;BME280;3962;42.696;23.354;2023-02-10T10:10:32;96871.63;;;2.17;46.01
7834;BME280;3962;42.696;23.354;2023-02-10T10:13:01;96864.97;;;2.51;45.86
7834;BME280;3962;42.696;23.354;2023-02-10T10:15:34;96866.13;;;2.44;45.35
7834;BME280;3962;42.696;23.354;2023-02-10T10:18:10;96865.03;;;2.28;45.96
7834;BME280;3962;42.696;23.354;2023-02-10T10:20:50;96857.56;;;2.18;45.58
7834;BME280;3962;42.696;23.354;2023-02-10T10:23:38;96842.09;;;2.33;45.62
7834;BME280;3962;42.696;23.354;2023-02-10T10:26:16;96845.53;;;2.34;45.53
7834;BME280;3962;42.696;23.354;2023-02-10T10:28:54;96847.38;;;2.10;46.19
7834;BME280;3962;42.696;23.354;2023-02-10T10:31:28;96841.16;;;2.13;46.19
7834;BME280;3962;42.696;23.354;2023-02-10T10:33:59;96839.25;;;2.16;45.95
7834;BME280;3962;42.696;23.354;2023-02-10T10:36:33;96834.06;;;2.36;46.21
7834;BME280;3962;42.696;23.354;2023-02-10T10:39:11;96831.44;;;2.58;45.15
7834;BME280;3962;42.696;23.354;2023-02-10T10:41:41;96823.94;;;2.49;45.08
7834;BME280;3962;42.696;23.354;2023-02-10T10:44:15;96822.16;;;2.49;44.96
7834;BME280;3962;42.696;23.354;2023-02-10T10:46:45;96825.16;;;2.62;45.24
7834;BME280;3962;42.696;23.354;2023-02-10T10:49:13;96822.56;;;2.60;44.23
7834;BME280;3962;42.696;23.354;2023-02-10T10:51:40;96814.16;;;2.52;44.47
7834;BME280;3962;42.696;23.354;2023-02-10T10:54:14;96815.69;;;2.36;45.56
7834;BME280;3962;42.696;23.354;2023-02-10T10:56:43;96808.53;;;2.40;45.15
7834;BME280;3962;42.696;23.354;2023-02-10T10:59:14;96807.19;;;2.51;45.32
7834;BME280;3962;42.696;23.354;2023-02-10T11:01:45;96803.47;;;2.35;45.48
7834;BME280;3962;42.696;23.354;2023-02-10T11:04:14;96790.28;;;2.37;45.38
7834;BME280;3962;42.696;23.354;2023-02-10T11:06:43;96798.34;;;2.54;45.21
7834;BME280;3962;42.696;23.354;2023-02-10T11:09:26;96798.63;;;2.88;45.16
7834;BME280;3962;42.696;23.354;2023-02-10T11:12:01;96790.75;;;2.88;44.35
7834;BME280;3962;42.696;23.354;2023-02-10T11:14:35;96788.13;;;2.88;43.60
7834;BME280;3962;42.696;23.354;2023-02-10T11:17:18;96788.97;;;2.68;44.42
7834;BME280;3962;42.696;23.354;2023-02-10T11:19:53;96786.91;;;2.55;45.24
7834;BME280;3962;42.696;23.354;2023-02-10T11:22:21;96784.69;;;2.66;45.67
7834;BME280;3962;42.696;23.354;2023-02-10T11:24:51;96774.50;;;2.78;45.26
7834;BME280;3962;42.696;23.354;2023-02-10T11:27:18;96783.78;;;2.87;44.85
7834;BME280;3962;42.696;23.354;2023-02-10T11:29:47;96776.09;;;2.82;44.64
7834;BME280;3962;42.696;23.354;2023-02-10T11:32:23;96770.31;;;2.74;45.83
7834;BME280;3962;42.696;23.354;2023-02-10T11:34:52;96766.50;;;2.81;44.63
7834;BME280;3962;42.696;23.354;2023-02-10T11:37:21;96769.97;;;2.82;44.33
7834;BME280;3962;42.696;23.354;2023-02-10T11:39:52;96764.47;;;2.68;44.82
7834;BME280;3962;42.696;23.354;2023-02-10T11:42:22;96765.44;;;2.65;45.69
7834;BME280;3962;42.696;23.354;2023-02-10T11:44:55;96759.31;;;2.65;45.00
7834;BME280;3962;42.696;23.354;2023-02-10T11:47:24;96765.69;;;2.79;44.63
7834;BME280;3962;42.696;23.354;2023-02-10T11:49:51;96759.41;;;2.83;44.96
7834;BME280;3962;42.696;23.354;2023-02-10T11:52:21;96756.75;;;2.63;44.86
7834;BME280;3962;42.696;23.354;2023-02-10T11:54:50;96759.38;;;2.43;45.05
7834;BME280;3962;42.696;23.354;2023-02-10T11:57:28;96753.94;;;2.48;44.76
7834;BME280;3962;42.696;23.354;2023-02-10T12:00:20;96746.25;;;2.63;44.96
7834;BME280;3962;42.696;23.354;2023-02-10T12:03:22;96743.81;;;2.99;44.17
7834;BME280;3962;42.696;23.354;2023-02-10T12:06:00;96740.41;;;2.97;44.37
7834;BME280;3962;42.696;23.354;2023-02-10T12:08:37;96742.41;;;2.92;43.87
7834;BME280;3962;42.696;23.354;2023-02-10T12:11:14;96738.38;;;3.03;44.10
7834;BME280;3962;42.696;23.354;2023-02-10T12:13:47;96727.72;;;2.86;44.72
7834;BME280;3962;42.696;23.354;2023-02-10T12:16:23;96719.78;;;3.08;44.63
7834;BME280;3962;42.696;23.354;2023-02-10T12:18:58;96719.44;;;3.34;43.97
7834;BME280;3962;42.696;23.354;2023-02-10T12:21:45;96709.97;;;3.30;44.54
7834;BME280;3962;42.696;23.354;2023-02-10T12:24:39;96706.81;;;3.60;44.14
7834;BME280;3962;42.696;23.354;2023-02-10T12:27:19;96711.19;;;3.78;42.90
7834;BME280;3962;42.696;23.354;2023-02-10T12:29:56;96707.78;;;3.94;43.03
7834;BME280;3962;42.696;23.354;2023-02-10T12:32:36;96712.63;;;4.20;42.81
7834;BME280;3962;42.696;23.354;2023-02-10T12:35:18;96712.66;;;4.02;42.35
7834;BME280;3962;42.696;23.354;2023-02-10T12:37:54;96711.44;;;4.09;42.08
7834;BME280;3962;42.696;23.354;2023-02-10T12:40:37;96689.81;;;4.02;42.14
7834;BME280;3962;42.696;23.354;2023-02-10T12:43:19;96702.41;;;3.96;41.98
7834;BME280;3962;42.696;23.354;2023-02-10T12:45:56;96705.13;;;3.94;42.50
7834;BME280;3962;42.696;23.354;2023-02-10T12:48:32;96696.09;;;4.00;42.01
7834;BME280;3962;42.696;23.354;2023-02-10T12:51:28;96694.81;;;4.25;42.46
7834;BME280;3962;42.696;23.354;2023-02-10T12:54:01;96695.91;;;4.38;42.26
7834;BME280;3962;42.696;23.354;2023-02-10T12:56:32;96697.63;;;4.73;42.24
7834;BME280;3962;42.696;23.354;2023-02-10T12:59:06;96690.09;;;5.00;41.69
7834;BME280;3962;42.696;23.354;2023-02-10T13:01:39;96686.13;;;4.40;42.27
7834;BME280;3962;42.696;23.354;2023-02-10T13:04:14;96697.75;;;4.87;41.74
7834;BME280;3962;42.696;23.354;2023-02-10T13:06:46;96697.09;;;5.16;41.04
7834;BME280;3962;42.696;23.354;2023-02-10T13:09:19;96697.66;;;5.06;40.66
7834;BME280;3962;42.696;23.354;2023-02-10T13:12:02;96689.50;;;5.10;41.68
7834;BME280;3962;42.696;23.354;2023-02-10T13:14:32;96689.31;;;5.30;41.18
7834;BME280;3962;42.696;23.354;2023-02-10T13:17:00;96686.22;;;5.70;40.21
7834;BME280;3962;42.696;23.354;2023-02-10T13:19:33;96701.94;;;5.89;39.02
7834;BME280;3962;42.696;23.354;2023-02-10T13:22:08;96697.41;;;5.91;39.97
7834;BME280;3962;42.696;23.354;2023-02-10T13:24:42;96697.91;;;5.82;39.88
7834;BME280;3962;42.696;23.354;2023-02-10T13:27:19;96688.38;;;5.95;38.98
7834;BME280;3962;42.696;23.354;2023-02-10T13:30:00;96680.88;;;6.03;38.96
7834;BME280;3962;42.696;23.354;2023-02-10T13:35:20;96690.31;;;6.07;39.03
7834;BME280;3962;42.696;23.354;2023-02-10T13:37:51;96689.38;;;6.23;38.30